Accueil
METAR-TAF:

METAR-TAF

Aéroports :

Aéroport municipal de Lake Havasu

Lake Havasu City, Arizona, États-Unis

latitude: 34-34-16N, longitude: 114-21-30W, altitude: 239 m

Observation

Le bulletin a été fait il y a 15 minutes, à 12:15 UTC
Vent 5 kt de est
Température 25°C
Humidité 17%
Pression 1010 hPa
Visibilité: 16.1 km
Ciel clair

METAR: KHII 011215Z AUTO 09005KT 10SM CLR 25/M02 A2982 RMK AO2

Heure: 05:30 (12:30 UTC)


TAF: absent

Observations et prévisions météorologiques de plus de 4000 aéroports (messages METAR et TAF).

Les stations disponibles sont représentées par des disques jaunes et rouges sur la carte.

Passer la souris dessus pour voir le nom de la station.

Cliquer dessus pour voir les observations et prévisions météorologiques.

Pour changer de carte: cliquez sur les boutons verts avec une croix noire pour zoomer, sur le bouton vert avec un tiret pour effectuer un zoom arrière, ou sur les flèches vertes pour les cartes adjacentes.


METAR-TAF: